sensor_id;sensor_type;location;lat;lon;timestamp;P1;durP1;ratioP1;P2;durP2;ratioP2
72813;SDS011;60945;48.516;-2.768;2023-06-10T00:01:32;32.13;;;26.65;;
72813;SDS011;60945;48.516;-2.768;2023-06-10T00:04:01;34.85;;;27.70;;
72813;SDS011;60945;48.516;-2.768;2023-06-10T00:06:27;36.35;;;27.33;;
72813;SDS011;60945;48.516;-2.768;2023-06-10T00:08:53;39.47;;;27.58;;
72813;SDS011;60945;48.516;-2.768;2023-06-10T00:11:20;34.58;;;27.67;;
72813;SDS011;60945;48.516;-2.768;2023-06-10T00:13:46;34.15;;;26.83;;
72813;SDS011;60945;48.516;-2.768;2023-06-10T00:16:12;36.78;;;26.00;;
72813;SDS011;60945;48.516;-2.768;2023-06-10T00:18:38;36.83;;;27.38;;
72813;SDS011;60945;48.516;-2.768;2023-06-10T00:21:04;32.65;;;26.67;;
72813;SDS011;60945;48.516;-2.768;2023-06-10T00:23:32;36.88;;;27.30;;
72813;SDS011;60945;48.516;-2.768;2023-06-10T00:26:02;36.03;;;26.83;;
72813;SDS011;60945;48.516;-2.768;2023-06-10T00:28:28;40.00;;;27.92;;
72813;SDS011;60945;48.516;-2.768;2023-06-10T00:30:54;34.17;;;26.55;;
72813;SDS011;60945;48.516;-2.768;2023-06-10T00:33:19;30.58;;;25.23;;
72813;SDS011;60945;48.516;-2.768;2023-06-10T00:35:46;32.25;;;25.05;;
72813;SDS011;60945;48.516;-2.768;2023-06-10T00:38:14;35.00;;;27.05;;
72813;SDS011;60945;48.516;-2.768;2023-06-10T00:40:40;33.30;;;26.20;;
72813;SDS011;60945;48.516;-2.768;2023-06-10T00:43:06;36.22;;;26.85;;
72813;SDS011;60945;48.516;-2.768;2023-06-10T00:45:32;35.58;;;26.83;;
72813;SDS011;60945;48.516;-2.768;2023-06-10T00:47:59;29.17;;;25.67;;
72813;SDS011;60945;48.516;-2.768;2023-06-10T00:50:25;37.40;;;28.50;;
72813;SDS011;60945;48.516;-2.768;2023-06-10T00:52:51;30.13;;;26.95;;
72813;SDS011;60945;48.516;-2.768;2023-06-10T00:55:21;32.38;;;25.45;;
72813;SDS011;60945;48.516;-2.768;2023-06-10T00:57:48;32.42;;;25.65;;
72813;SDS011;60945;48.516;-2.768;2023-06-10T01:00:14;30.10;;;25.77;;
72813;SDS011;60945;48.516;-2.768;2023-06-10T01:02:41;28.08;;;24.58;;
72813;SDS011;60945;48.516;-2.768;2023-06-10T01:05:07;33.00;;;25.85;;
72813;SDS011;60945;48.516;-2.768;2023-06-10T01:10:19;29.83;;;25.25;;
72813;SDS011;60945;48.516;-2.768;2023-06-10T01:13:00;36.05;;;27.17;;
72813;SDS011;60945;48.516;-2.768;2023-06-10T01:15:31;32.00;;;24.60;;
72813;SDS011;60945;48.516;-2.768;2023-06-10T01:17:58;31.73;;;25.65;;
72813;SDS011;60945;48.516;-2.768;2023-06-10T01:20:26;31.83;;;26.23;;
72813;SDS011;60945;48.516;-2.768;2023-06-10T01:22:55;30.73;;;25.70;;
72813;SDS011;60945;48.516;-2.768;2023-06-10T01:25:22;30.35;;;24.35;;
72813;SDS011;60945;48.516;-2.768;2023-06-10T01:27:58;33.08;;;25.20;;
72813;SDS011;60945;48.516;-2.768;2023-06-10T01:33:26;36.67;;;26.52;;
72813;SDS011;60945;48.516;-2.768;2023-06-10T01:35:55;33.63;;;26.95;;
72813;SDS011;60945;48.516;-2.768;2023-06-10T01:38:22;37.28;;;26.80;;
72813;SDS011;60945;48.516;-2.768;2023-06-10T01:40:55;37.80;;;28.30;;
72813;SDS011;60945;48.516;-2.768;2023-06-10T01:43:21;35.65;;;27.05;;
72813;SDS011;60945;48.516;-2.768;2023-06-10T01:45:47;34.15;;;27.00;;
72813;SDS011;60945;48.516;-2.768;2023-06-10T01:48:16;37.28;;;28.83;;
72813;SDS011;60945;48.516;-2.768;2023-06-10T01:50:42;32.10;;;26.13;;
72813;SDS011;60945;48.516;-2.768;2023-06-10T01:53:08;32.80;;;27.13;;
72813;SDS011;60945;48.516;-2.768;2023-06-10T01:55:34;37.08;;;28.20;;
72813;SDS011;60945;48.516;-2.768;2023-06-10T01:58:00;39.10;;;28.45;;
72813;SDS011;60945;48.516;-2.768;2023-06-10T02:00:26;32.95;;;25.65;;
72813;SDS011;60945;48.516;-2.768;2023-06-10T02:02:51;39.40;;;28.23;;
72813;SDS011;60945;48.516;-2.768;2023-06-10T02:05:17;38.20;;;26.80;;
72813;SDS011;60945;48.516;-2.768;2023-06-10T02:07:43;36.88;;;27.67;;
72813;SDS011;60945;48.516;-2.768;2023-06-10T02:10:09;33.55;;;26.55;;
72813;SDS011;60945;48.516;-2.768;2023-06-10T02:12:34;35.17;;;27.23;;
72813;SDS011;60945;48.516;-2.768;2023-06-10T02:15:00;37.25;;;28.90;;
72813;SDS011;60945;48.516;-2.768;2023-06-10T02:17:29;37.45;;;28.42;;
72813;SDS011;60945;48.516;-2.768;2023-06-10T02:19:55;33.10;;;27.23;;
72813;SDS011;60945;48.516;-2.768;2023-06-10T02:22:22;35.17;;;27.00;;
72813;SDS011;60945;48.516;-2.768;2023-06-10T02:24:48;32.90;;;26.95;;
72813;SDS011;60945;48.516;-2.768;2023-06-10T02:27:15;33.30;;;27.10;;
72813;SDS011;60945;48.516;-2.768;2023-06-10T02:29:41;30.77;;;26.00;;
72813;SDS011;60945;48.516;-2.768;2023-06-10T02:32:07;31.80;;;27.10;;
72813;SDS011;60945;48.516;-2.768;2023-06-10T02:34:33;30.55;;;27.10;;
72813;SDS011;60945;48.516;-2.768;2023-06-10T02:36:59;30.63;;;26.52;;
72813;SDS011;60945;48.516;-2.768;2023-06-10T02:39:26;32.28;;;26.08;;
72813;SDS011;60945;48.516;-2.768;2023-06-10T02:41:52;28.35;;;24.80;;
72813;SDS011;60945;48.516;-2.768;2023-06-10T02:44:18;27.63;;;23.63;;
72813;SDS011;60945;48.516;-2.768;2023-06-10T02:46:44;26.10;;;23.33;;
72813;SDS011;60945;48.516;-2.768;2023-06-10T02:49:10;27.02;;;23.45;;
72813;SDS011;60945;48.516;-2.768;2023-06-10T02:51:36;25.23;;;21.60;;
72813;SDS011;60945;48.516;-2.768;2023-06-10T02:54:02;26.42;;;20.73;;
72813;SDS011;60945;48.516;-2.768;2023-06-10T02:56:27;24.45;;;21.92;;
72813;SDS011;60945;48.516;-2.768;2023-06-10T02:58:53;24.70;;;21.38;;
72813;SDS011;60945;48.516;-2.768;2023-06-10T03:01:19;23.40;;;20.45;;
72813;SDS011;60945;48.516;-2.768;2023-06-10T03:03:45;21.55;;;19.33;;
72813;SDS011;60945;48.516;-2.768;2023-06-10T03:06:11;21.38;;;18.75;;
72813;SDS011;60945;48.516;-2.768;2023-06-10T03:08:38;21.45;;;19.33;;
72813;SDS011;60945;48.516;-2.768;2023-06-10T03:11:05;24.00;;;19.83;;
72813;SDS011;60945;48.516;-2.768;2023-06-10T03:13:31;21.95;;;18.48;;
72813;SDS011;60945;48.516;-2.768;2023-06-10T03:15:57;23.15;;;19.02;;
72813;SDS011;60945;48.516;-2.768;2023-06-10T03:18:26;21.02;;;18.92;;
72813;SDS011;60945;48.516;-2.768;2023-06-10T03:20:52;21.13;;;18.35;;
72813;SDS011;60945;48.516;-2.768;2023-06-10T03:23:22;23.00;;;17.55;;
72813;SDS011;60945;48.516;-2.768;2023-06-10T03:25:48;20.33;;;17.92;;
72813;SDS011;60945;48.516;-2.768;2023-06-10T03:28:14;22.40;;;18.65;;
72813;SDS011;60945;48.516;-2.768;2023-06-10T03:30:39;22.08;;;18.40;;
72813;SDS011;60945;48.516;-2.768;2023-06-10T03:33:05;23.15;;;17.83;;
72813;SDS011;60945;48.516;-2.768;2023-06-10T03:35:31;19.65;;;16.70;;
72813;SDS011;60945;48.516;-2.768;2023-06-10T03:37:57;20.38;;;17.27;;
72813;SDS011;60945;48.516;-2.768;2023-06-10T03:40:23;20.13;;;16.35;;
72813;SDS011;60945;48.516;-2.768;2023-06-10T03:42:49;19.38;;;16.95;;
72813;SDS011;60945;48.516;-2.768;2023-06-10T03:45:15;20.48;;;16.55;;
72813;SDS011;60945;48.516;-2.768;2023-06-10T03:47:41;19.65;;;16.05;;
72813;SDS011;60945;48.516;-2.768;2023-06-10T03:50:08;17.88;;;15.95;;
72813;SDS011;60945;48.516;-2.768;2023-06-10T03:52:37;18.08;;;15.30;;
72813;SDS011;60945;48.516;-2.768;2023-06-10T03:55:03;18.60;;;15.88;;
72813;SDS011;60945;48.516;-2.768;2023-06-10T03:57:30;17.15;;;15.20;;
72813;SDS011;60945;48.516;-2.768;2023-06-10T03:59:58;18.63;;;16.35;;
72813;SDS011;60945;48.516;-2.768;2023-06-10T04:02:23;19.67;;;16.40;;
72813;SDS011;60945;48.516;-2.768;2023-06-10T04:04:50;17.08;;;15.48;;
72813;SDS011;60945;48.516;-2.768;2023-06-10T04:07:16;17.88;;;15.90;;
72813;SDS011;60945;48.516;-2.768;2023-06-10T04:09:44;18.58;;;15.35;;
72813;SDS011;60945;48.516;-2.768;2023-06-10T04:12:09;17.95;;;15.75;;
72813;SDS011;60945;48.516;-2.768;2023-06-10T04:14:35;17.25;;;15.40;;
72813;SDS011;60945;48.516;-2.768;2023-06-10T04:17:02;18.15;;;15.55;;
72813;SDS011;60945;48.516;-2.768;2023-06-10T04:19:31;16.30;;;14.65;;
72813;SDS011;60945;48.516;-2.768;2023-06-10T04:21:57;19.35;;;15.57;;
72813;SDS011;60945;48.516;-2.768;2023-06-10T04:24:23;19.00;;;15.57;;
72813;SDS011;60945;48.516;-2.768;2023-06-10T04:26:48;17.10;;;15.27;;
72813;SDS011;60945;48.516;-2.768;2023-06-10T04:29:14;17.33;;;15.73;;
72813;SDS011;60945;48.516;-2.768;2023-06-10T04:31:40;19.70;;;15.35;;
72813;SDS011;60945;48.516;-2.768;2023-06-10T04:34:06;16.90;;;15.13;;
72813;SDS011;60945;48.516;-2.768;2023-06-10T04:36:32;16.98;;;15.02;;
72813;SDS011;60945;48.516;-2.768;2023-06-10T04:38:58;16.83;;;15.13;;
72813;SDS011;60945;48.516;-2.768;2023-06-10T04:41:24;16.75;;;15.10;;
72813;SDS011;60945;48.516;-2.768;2023-06-10T04:43:50;16.65;;;15.05;;
72813;SDS011;60945;48.516;-2.768;2023-06-10T04:46:16;17.90;;;16.05;;
72813;SDS011;60945;48.516;-2.768;2023-06-10T04:48:42;17.25;;;15.55;;
72813;SDS011;60945;48.516;-2.768;2023-06-10T04:51:12;18.23;;;15.75;;
72813;SDS011;60945;48.516;-2.768;2023-06-10T04:53:38;18.23;;;16.42;;
72813;SDS011;60945;48.516;-2.768;2023-06-10T04:56:04;18.40;;;15.27;;
72813;SDS011;60945;48.516;-2.768;2023-06-10T04:58:29;17.50;;;14.95;;
72813;SDS011;60945;48.516;-2.768;2023-06-10T05:00:55;17.85;;;15.95;;
72813;SDS011;60945;48.516;-2.768;2023-06-10T05:03:21;17.08;;;15.48;;
72813;SDS011;60945;48.516;-2.768;2023-06-10T05:05:46;19.83;;;16.83;;
72813;SDS011;60945;48.516;-2.768;2023-06-10T05:08:12;19.77;;;15.48;;
72813;SDS011;60945;48.516;-2.768;2023-06-10T05:10:38;18.52;;;16.73;;
72813;SDS011;60945;48.516;-2.768;2023-06-10T05:13:03;18.83;;;16.35;;
72813;SDS011;60945;48.516;-2.768;2023-06-10T05:15:29;18.35;;;16.48;;
72813;SDS011;60945;48.516;-2.768;2023-06-10T05:17:57;17.90;;;16.20;;
72813;SDS011;60945;48.516;-2.768;2023-06-10T05:20:27;19.50;;;17.45;;
72813;SDS011;60945;48.516;-2.768;2023-06-10T05:22:56;20.20;;;17.23;;
72813;SDS011;60945;48.516;-2.768;2023-06-10T05:25:22;19.05;;;17.25;;
72813;SDS011;60945;48.516;-2.768;2023-06-10T05:27:47;18.38;;;16.40;;
72813;SDS011;60945;48.516;-2.768;2023-06-10T05:30:13;18.55;;;16.75;;
72813;SDS011;60945;48.516;-2.768;2023-06-10T05:32:38;18.10;;;16.30;;
72813;SDS011;60945;48.516;-2.768;2023-06-10T05:35:04;19.35;;;17.33;;
72813;SDS011;60945;48.516;-2.768;2023-06-10T05:37:34;18.50;;;16.48;;
72813;SDS011;60945;48.516;-2.768;2023-06-10T05:40:02;18.92;;;16.92;;
72813;SDS011;60945;48.516;-2.768;2023-06-10T05:42:29;18.80;;;17.10;;
72813;SDS011;60945;48.516;-2.768;2023-06-10T05:44:55;19.75;;;17.65;;
72813;SDS011;60945;48.516;-2.768;2023-06-10T05:47:20;17.63;;;15.95;;
72813;SDS011;60945;48.516;-2.768;2023-06-10T05:49:46;17.70;;;15.98;;
72813;SDS011;60945;48.516;-2.768;2023-06-10T05:52:14;19.08;;;17.10;;
72813;SDS011;60945;48.516;-2.768;2023-06-10T05:54:39;18.50;;;16.50;;
72813;SDS011;60945;48.516;-2.768;2023-06-10T05:57:05;19.08;;;17.20;;
72813;SDS011;60945;48.516;-2.768;2023-06-10T05:59:31;19.65;;;17.63;;
72813;SDS011;60945;48.516;-2.768;2023-06-10T06:01:56;20.92;;;17.15;;
72813;SDS011;60945;48.516;-2.768;2023-06-10T06:04:25;19.45;;;17.08;;
72813;SDS011;60945;48.516;-2.768;2023-06-10T06:06:50;19.23;;;17.30;;
72813;SDS011;60945;48.516;-2.768;2023-06-10T06:09:16;19.80;;;17.70;;
72813;SDS011;60945;48.516;-2.768;2023-06-10T06:11:42;19.27;;;17.30;;
72813;SDS011;60945;48.516;-2.768;2023-06-10T06:14:07;19.30;;;17.40;;
72813;SDS011;60945;48.516;-2.768;2023-06-10T06:16:33;20.60;;;18.40;;
72813;SDS011;60945;48.516;-2.768;2023-06-10T06:18:58;19.48;;;17.50;;
72813;SDS011;60945;48.516;-2.768;2023-06-10T06:21:27;18.30;;;16.50;;
72813;SDS011;60945;48.516;-2.768;2023-06-10T06:23:52;19.70;;;17.60;;
72813;SDS011;60945;48.516;-2.768;2023-06-10T06:26:18;19.30;;;17.20;;
72813;SDS011;60945;48.516;-2.768;2023-06-10T06:28:46;18.88;;;17.08;;
72813;SDS011;60945;48.516;-2.768;2023-06-10T06:31:11;18.88;;;17.17;;
72813;SDS011;60945;48.516;-2.768;2023-06-10T06:33:37;20.45;;;17.70;;
72813;SDS011;60945;48.516;-2.768;2023-06-10T06:36:03;18.83;;;17.10;;
72813;SDS011;60945;48.516;-2.768;2023-06-10T06:38:28;19.50;;;17.65;;
72813;SDS011;60945;48.516;-2.768;2023-06-10T06:40:54;18.42;;;16.83;;
72813;SDS011;60945;48.516;-2.768;2023-06-10T06:43:20;18.65;;;16.95;;
72813;SDS011;60945;48.516;-2.768;2023-06-10T06:45:45;19.10;;;17.30;;
72813;SDS011;60945;48.516;-2.768;2023-06-10T06:48:11;18.17;;;16.35;;
72813;SDS011;60945;48.516;-2.768;2023-06-10T06:50:37;17.55;;;15.95;;
72813;SDS011;60945;48.516;-2.768;2023-06-10T06:53:03;17.55;;;16.00;;
72813;SDS011;60945;48.516;-2.768;2023-06-10T06:55:29;17.58;;;15.90;;
72813;SDS011;60945;48.516;-2.768;2023-06-10T06:57:55;17.10;;;15.50;;
72813;SDS011;60945;48.516;-2.768;2023-06-10T07:00:21;17.92;;;16.42;;
72813;SDS011;60945;48.516;-2.768;2023-06-10T07:02:47;20.20;;;18.60;;
72813;SDS011;60945;48.516;-2.768;2023-06-10T07:05:13;29.63;;;27.85;;
72813;SDS011;60945;48.516;-2.768;2023-06-10T07:07:38;16.27;;;14.68;;
72813;SDS011;60945;48.516;-2.768;2023-06-10T07:10:04;16.23;;;14.73;;
72813;SDS011;60945;48.516;-2.768;2023-06-10T07:12:30;15.35;;;13.95;;
72813;SDS011;60945;48.516;-2.768;2023-06-10T07:14:56;15.32;;;13.95;;
72813;SDS011;60945;48.516;-2.768;2023-06-10T07:17:21;15.10;;;13.65;;
72813;SDS011;60945;48.516;-2.768;2023-06-10T07:19:47;28.52;;;26.80;;
72813;SDS011;60945;48.516;-2.768;2023-06-10T07:22:13;27.00;;;25.20;;
72813;SDS011;60945;48.516;-2.768;2023-06-10T07:24:39;14.60;;;13.32;;
72813;SDS011;60945;48.516;-2.768;2023-06-10T07:27:05;15.20;;;13.85;;
72813;SDS011;60945;48.516;-2.768;2023-06-10T07:29:32;14.77;;;13.48;;
72813;SDS011;60945;48.516;-2.768;2023-06-10T07:31:57;15.18;;;13.77;;
72813;SDS011;60945;48.516;-2.768;2023-06-10T07:34:23;14.90;;;13.63;;
72813;SDS011;60945;48.516;-2.768;2023-06-10T07:36:49;15.70;;;14.20;;
72813;SDS011;60945;48.516;-2.768;2023-06-10T07:39:15;15.18;;;13.88;;
72813;SDS011;60945;48.516;-2.768;2023-06-10T07:41:40;15.10;;;13.80;;
72813;SDS011;60945;48.516;-2.768;2023-06-10T07:44:06;14.77;;;13.48;;
72813;SDS011;60945;48.516;-2.768;2023-06-10T07:46:32;15.25;;;13.85;;
72813;SDS011;60945;48.516;-2.768;2023-06-10T07:48:57;15.13;;;13.68;;
72813;SDS011;60945;48.516;-2.768;2023-06-10T07:51:23;15.10;;;13.90;;
72813;SDS011;60945;48.516;-2.768;2023-06-10T07:53:49;14.32;;;13.07;;
72813;SDS011;60945;48.516;-2.768;2023-06-10T07:56:14;14.57;;;13.27;;
72813;SDS011;60945;48.516;-2.768;2023-06-10T07:58:40;14.95;;;13.65;;
72813;SDS011;60945;48.516;-2.768;2023-06-10T08:01:06;14.40;;;13.20;;
72813;SDS011;60945;48.516;-2.768;2023-06-10T08:03:32;14.18;;;12.88;;
72813;SDS011;60945;48.516;-2.768;2023-06-10T08:05:59;22.00;;;20.55;;
72813;SDS011;60945;48.516;-2.768;2023-06-10T08:08:32;14.65;;;13.32;;
72813;SDS011;60945;48.516;-2.768;2023-06-10T08:10:57;14.50;;;13.20;;
72813;SDS011;60945;48.516;-2.768;2023-06-10T08:13:23;14.23;;;13.02;;
72813;SDS011;60945;48.516;-2.768;2023-06-10T08:15:49;14.60;;;13.25;;
72813;SDS011;60945;48.516;-2.768;2023-06-10T08:18:15;14.70;;;13.40;;
72813;SDS011;60945;48.516;-2.768;2023-06-10T08:20:41;13.65;;;12.50;;
72813;SDS011;60945;48.516;-2.768;2023-06-10T08:23:06;14.13;;;12.88;;
72813;SDS011;60945;48.516;-2.768;2023-06-10T08:25:35;14.52;;;13.30;;
72813;SDS011;60945;48.516;-2.768;2023-06-10T08:28:00;14.02;;;12.77;;
72813;SDS011;60945;48.516;-2.768;2023-06-10T08:30:26;14.25;;;13.05;;
72813;SDS011;60945;48.516;-2.768;2023-06-10T08:32:52;14.07;;;12.85;;
72813;SDS011;60945;48.516;-2.768;2023-06-10T08:35:17;14.63;;;13.38;;
72813;SDS011;60945;48.516;-2.768;2023-06-10T08:37:46;14.70;;;13.48;;
72813;SDS011;60945;48.516;-2.768;2023-06-10T08:40:12;14.65;;;13.43;;
72813;SDS011;60945;48.516;-2.768;2023-06-10T08:45:24;13.70;;;12.60;;
72813;SDS011;60945;48.516;-2.768;2023-06-10T08:47:52;13.70;;;12.60;;
72813;SDS011;60945;48.516;-2.768;2023-06-10T08:50:21;13.48;;;12.18;;
72813;SDS011;60945;48.516;-2.768;2023-06-10T08:52:48;13.32;;;12.32;;
72813;SDS011;60945;48.516;-2.768;2023-06-10T08:55:17;14.15;;;13.07;;
72813;SDS011;60945;48.516;-2.768;2023-06-10T08:57:47;13.60;;;12.50;;
72813;SDS011;60945;48.516;-2.768;2023-06-10T09:00:14;13.93;;;12.73;;
72813;SDS011;60945;48.516;-2.768;2023-06-10T09:02:41;13.60;;;12.60;;
72813;SDS011;60945;48.516;-2.768;2023-06-10T09:05:08;14.77;;;13.35;;
72813;SDS011;60945;48.516;-2.768;2023-06-10T09:07:34;13.93;;;12.65;;
72813;SDS011;60945;48.516;-2.768;2023-06-10T09:10:01;14.23;;;13.02;;
72813;SDS011;60945;48.516;-2.768;2023-06-10T09:12:32;14.43;;;13.13;;
72813;SDS011;60945;48.516;-2.768;2023-06-10T09:14:59;14.60;;;13.32;;
72813;SDS011;60945;48.516;-2.768;2023-06-10T09:17:27;14.30;;;13.00;;
72813;SDS011;60945;48.516;-2.768;2023-06-10T09:19:56;13.48;;;12.45;;
72813;SDS011;60945;48.516;-2.768;2023-06-10T09:22:22;14.48;;;13.27;;
72813;SDS011;60945;48.516;-2.768;2023-06-10T09:24:48;14.70;;;13.38;;
72813;SDS011;60945;48.516;-2.768;2023-06-10T09:27:14;14.27;;;13.10;;
72813;SDS011;60945;48.516;-2.768;2023-06-10T09:32:13;15.32;;;14.13;;
72813;SDS011;60945;48.516;-2.768;2023-06-10T09:34:39;15.05;;;13.85;;
72813;SDS011;60945;48.516;-2.768;2023-06-10T09:37:05;14.65;;;13.48;;
72813;SDS011;60945;48.516;-2.768;2023-06-10T09:39:31;17.27;;;15.85;;
72813;SDS011;60945;48.516;-2.768;2023-06-10T09:41:57;14.18;;;13.18;;
72813;SDS011;60945;48.516;-2.768;2023-06-10T09:44:22;14.75;;;13.55;;
72813;SDS011;60945;48.516;-2.768;2023-06-10T09:46:50;14.70;;;13.60;;
72813;SDS011;60945;48.516;-2.768;2023-06-10T09:49:18;14.48;;;13.38;;
72813;SDS011;60945;48.516;-2.768;2023-06-10T09:51:54;15.23;;;13.93;;
72813;SDS011;60945;48.516;-2.768;2023-06-10T09:54:20;14.73;;;13.52;;
72813;SDS011;60945;48.516;-2.768;2023-06-10T09:56:47;15.52;;;14.23;;
72813;SDS011;60945;48.516;-2.768;2023-06-10T09:59:27;14.20;;;13.20;;
72813;SDS011;60945;48.516;-2.768;2023-06-10T10:01:55;14.57;;;13.35;;
72813;SDS011;60945;48.516;-2.768;2023-06-10T10:04:24;14.52;;;13.32;;
72813;SDS011;60945;48.516;-2.768;2023-06-10T10:06:50;13.88;;;12.73;;
72813;SDS011;60945;48.516;-2.768;2023-06-10T10:09:16;13.63;;;12.48;;
72813;SDS011;60945;48.516;-2.768;2023-06-10T10:11:42;18.42;;;16.73;;
72813;SDS011;60945;48.516;-2.768;2023-06-10T10:14:09;19.70;;;17.92;;
72813;SDS011;60945;48.516;-2.768;2023-06-10T10:16:40;20.67;;;18.48;;
72813;SDS011;60945;48.516;-2.768;2023-06-10T10:19:12;22.80;;;20.58;;
72813;SDS011;60945;48.516;-2.768;2023-06-10T10:21:48;23.23;;;20.83;;
72813;SDS011;60945;48.516;-2.768;2023-06-10T10:24:18;24.75;;;22.00;;
72813;SDS011;60945;48.516;-2.768;2023-06-10T10:27:21;24.20;;;21.63;;
72813;SDS011;60945;48.516;-2.768;2023-06-10T10:30:00;24.80;;;22.15;;
72813;SDS011;60945;48.516;-2.768;2023-06-10T10:32:32;24.80;;;22.27;;
72813;SDS011;60945;48.516;-2.768;2023-06-10T10:35:12;26.17;;;22.10;;
72813;SDS011;60945;48.516;-2.768;2023-06-10T10:37:46;24.48;;;21.98;;
72813;SDS011;60945;48.516;-2.768;2023-06-10T10:40:12;25.08;;;22.40;;
72813;SDS011;60945;48.516;-2.768;2023-06-10T10:42:39;24.30;;;21.80;;
72813;SDS011;60945;48.516;-2.768;2023-06-10T10:45:06;24.10;;;21.80;;
72813;SDS011;60945;48.516;-2.768;2023-06-10T10:47:33;23.60;;;21.05;;
72813;SDS011;60945;48.516;-2.768;2023-06-10T10:50:01;23.95;;;21.45;;
72813;SDS011;60945;48.516;-2.768;2023-06-10T10:52:27;23.50;;;21.20;;
72813;SDS011;60945;48.516;-2.768;2023-06-10T10:55:19;25.15;;;22.55;;
72813;SDS011;60945;48.516;-2.768;2023-06-10T10:57:45;23.92;;;21.45;;
72813;SDS011;60945;48.516;-2.768;2023-06-10T11:02:59;23.75;;;21.08;;
72813;SDS011;60945;48.516;-2.768;2023-06-10T11:05:37;22.60;;;20.38;;
72813;SDS011;60945;48.516;-2.768;2023-06-10T11:08:09;23.20;;;20.85;;
72813;SDS011;60945;48.516;-2.768;2023-06-10T11:10:39;23.90;;;21.42;;
72813;SDS011;60945;48.516;-2.768;2023-06-10T11:13:09;24.55;;;20.58;;
72813;SDS011;60945;48.516;-2.768;2023-06-10T11:15:42;23.00;;;20.70;;
72813;SDS011;60945;48.516;-2.768;2023-06-10T11:23:29;22.92;;;20.45;;
72813;SDS011;60945;48.516;-2.768;2023-06-10T11:31:20;22.65;;;20.23;;
72813;SDS011;60945;48.516;-2.768;2023-06-10T11:33:52;24.55;;;21.85;;
72813;SDS011;60945;48.516;-2.768;2023-06-10T11:36:20;22.77;;;20.38;;
72813;SDS011;60945;48.516;-2.768;2023-06-10T11:38:46;23.63;;;21.20;;
72813;SDS011;60945;48.516;-2.768;2023-06-10T11:41:11;24.85;;;21.40;;
72813;SDS011;60945;48.516;-2.768;2023-06-10T11:43:40;22.70;;;20.50;;
72813;SDS011;60945;48.516;-2.768;2023-06-10T11:46:14;22.88;;;20.58;;
72813;SDS011;60945;48.516;-2.768;2023-06-10T11:51:37;22.58;;;20.38;;
72813;SDS011;60945;48.516;-2.768;2023-06-10T11:54:05;21.85;;;19.60;;
72813;SDS011;60945;48.516;-2.768;2023-06-10T11:56:34;21.20;;;19.50;;
72813;SDS011;60945;48.516;-2.768;2023-06-10T12:01:31;29.58;;;27.70;;
72813;SDS011;60945;48.516;-2.768;2023-06-10T12:04:02;20.73;;;19.17;;
72813;SDS011;60945;48.516;-2.768;2023-06-10T12:06:40;19.52;;;18.13;;
72813;SDS011;60945;48.516;-2.768;2023-06-10T12:09:28;19.77;;;18.38;;
72813;SDS011;60945;48.516;-2.768;2023-06-10T12:11:56;19.75;;;18.45;;
72813;SDS011;60945;48.516;-2.768;2023-06-10T12:19:59;18.90;;;17.70;;
72813;SDS011;60945;48.516;-2.768;2023-06-10T12:22:25;19.00;;;17.83;;
72813;SDS011;60945;48.516;-2.768;2023-06-10T12:24:58;18.48;;;17.27;;
72813;SDS011;60945;48.516;-2.768;2023-06-10T12:27:24;20.67;;;19.42;;
72813;SDS011;60945;48.516;-2.768;2023-06-10T12:29:51;18.33;;;17.23;;
72813;SDS011;60945;48.516;-2.768;2023-06-10T12:32:20;18.38;;;17.25;;
72813;SDS011;60945;48.516;-2.768;2023-06-10T12:34:52;18.65;;;17.58;;
72813;SDS011;60945;48.516;-2.768;2023-06-10T12:37:33;19.83;;;18.73;;
72813;SDS011;60945;48.516;-2.768;2023-06-10T12:39:59;27.38;;;26.08;;
72813;SDS011;60945;48.516;-2.768;2023-06-10T12:42:27;19.05;;;17.85;;
72813;SDS011;60945;48.516;-2.768;2023-06-10T12:44:54;18.92;;;17.92;;
72813;SDS011;60945;48.516;-2.768;2023-06-10T12:47:28;18.73;;;17.60;;
72813;SDS011;60945;48.516;-2.768;2023-06-10T12:49:59;18.77;;;17.77;;
72813;SDS011;60945;48.516;-2.768;2023-06-10T12:52:26;19.55;;;18.42;;
72813;SDS011;60945;48.516;-2.768;2023-06-10T12:54:52;20.00;;;18.80;;
72813;SDS011;60945;48.516;-2.768;2023-06-10T12:57:19;20.23;;;19.20;;
72813;SDS011;60945;48.516;-2.768;2023-06-10T12:59:44;20.48;;;19.38;;
72813;SDS011;60945;48.516;-2.768;2023-06-10T13:02:15;20.20;;;19.17;;
72813;SDS011;60945;48.516;-2.768;2023-06-10T13:04:43;19.08;;;18.08;;
72813;SDS011;60945;48.516;-2.768;2023-06-10T13:07:09;18.15;;;17.13;;
72813;SDS011;60945;48.516;-2.768;2023-06-10T13:09:35;18.35;;;17.15;;
72813;SDS011;60945;48.516;-2.768;2023-06-10T13:12:01;17.17;;;16.17;;
72813;SDS011;60945;48.516;-2.768;2023-06-10T13:14:27;15.80;;;14.70;;
72813;SDS011;60945;48.516;-2.768;2023-06-10T13:16:54;14.65;;;13.75;;
72813;SDS011;60945;48.516;-2.768;2023-06-10T13:19:22;13.95;;;13.05;;
72813;SDS011;60945;48.516;-2.768;2023-06-10T13:21:51;14.77;;;13.77;;
72813;SDS011;60945;48.516;-2.768;2023-06-10T13:24:20;13.52;;;12.55;;
72813;SDS011;60945;48.516;-2.768;2023-06-10T13:26:45;14.82;;;13.80;;
72813;SDS011;60945;48.516;-2.768;2023-06-10T13:29:11;13.57;;;12.65;;
72813;SDS011;60945;48.516;-2.768;2023-06-10T13:31:39;14.45;;;13.35;;
72813;SDS011;60945;48.516;-2.768;2023-06-10T13:34:07;13.18;;;12.27;;
72813;SDS011;60945;48.516;-2.768;2023-06-10T13:36:33;13.70;;;12.52;;
72813;SDS011;60945;48.516;-2.768;2023-06-10T13:38:58;13.10;;;12.00;;
72813;SDS011;60945;48.516;-2.768;2023-06-10T13:41:24;12.77;;;11.88;;
72813;SDS011;60945;48.516;-2.768;2023-06-10T13:43:53;12.80;;;11.93;;
72813;SDS011;60945;48.516;-2.768;2023-06-10T13:46:19;12.48;;;11.70;;
72813;SDS011;60945;48.516;-2.768;2023-06-10T13:48:46;12.15;;;11.23;;
72813;SDS011;60945;48.516;-2.768;2023-06-10T13:51:12;12.02;;;11.15;;
72813;SDS011;60945;48.516;-2.768;2023-06-10T13:53:38;10.52;;;9.93;;
72813;SDS011;60945;48.516;-2.768;2023-06-10T13:56:03;10.73;;;10.13;;
72813;SDS011;60945;48.516;-2.768;2023-06-10T13:58:29;13.30;;;12.20;;
72813;SDS011;60945;48.516;-2.768;2023-06-10T14:00:54;12.38;;;11.68;;
72813;SDS011;60945;48.516;-2.768;2023-06-10T14:03:20;31.42;;;30.05;;
72813;SDS011;60945;48.516;-2.768;2023-06-10T14:05:46;13.23;;;12.32;;
72813;SDS011;60945;48.516;-2.768;2023-06-10T14:08:11;13.52;;;12.73;;
72813;SDS011;60945;48.516;-2.768;2023-06-10T14:10:37;12.98;;;12.15;;
72813;SDS011;60945;48.516;-2.768;2023-06-10T14:13:02;12.85;;;12.15;;
72813;SDS011;60945;48.516;-2.768;2023-06-10T14:15:28;13.30;;;12.50;;
72813;SDS011;60945;48.516;-2.768;2023-06-10T14:17:54;13.73;;;12.93;;
72813;SDS011;60945;48.516;-2.768;2023-06-10T14:20:20;14.48;;;13.60;;
72813;SDS011;60945;48.516;-2.768;2023-06-10T14:22:45;14.35;;;13.35;;
72813;SDS011;60945;48.516;-2.768;2023-06-10T14:25:11;14.25;;;13.55;;
72813;SDS011;60945;48.516;-2.768;2023-06-10T14:27:37;13.40;;;12.70;;
72813;SDS011;60945;48.516;-2.768;2023-06-10T14:30:02;14.52;;;13.73;;
72813;SDS011;60945;48.516;-2.768;2023-06-10T14:32:28;14.40;;;13.65;;
72813;SDS011;60945;48.516;-2.768;2023-06-10T14:34:54;14.35;;;13.60;;
72813;SDS011;60945;48.516;-2.768;2023-06-10T14:37:20;15.15;;;14.27;;
72813;SDS011;60945;48.516;-2.768;2023-06-10T14:39:45;13.25;;;12.45;;
72813;SDS011;60945;48.516;-2.768;2023-06-10T14:42:11;12.90;;;12.13;;
72813;SDS011;60945;48.516;-2.768;2023-06-10T14:44:37;12.07;;;11.45;;